createdAt,value
2022-12-15T00:00:05.155Z,93.13
2022-12-15T00:01:05.195Z,93.13
2022-12-15T00:02:05.297Z,93.02
2022-12-15T00:03:05.119Z,92.91
2022-12-15T00:04:05.129Z,92.81
2022-12-15T00:05:05.088Z,92.81
2022-12-15T00:06:05.185Z,92.91
2022-12-15T00:07:05.098Z,92.91
2022-12-15T00:08:05.022Z,92.81
2022-12-15T00:09:07.543Z,93.02
2022-12-15T00:10:06.061Z,93.13
2022-12-15T00:11:05.063Z,93.24
2022-12-15T00:12:04.979Z,93.24
2022-12-15T00:13:04.964Z,93.13
2022-12-15T00:14:05.918Z,93.02
2022-12-15T00:15:04.919Z,92.81
2022-12-15T00:16:05.290Z,92.91
2022-12-15T00:17:04.931Z,93.13
2022-12-15T00:18:04.937Z,93.30
2022-12-15T00:19:04.881Z,93.74
2022-12-15T00:20:04.848Z,93.95
2022-12-15T00:21:05.710Z,93.95
2022-12-15T00:22:04.959Z,94.06
2022-12-15T00:23:04.870Z,93.91
2022-12-15T00:24:04.855Z,93.84
2022-12-15T00:25:05.031Z,93.63
2022-12-15T00:26:04.920Z,93.52
2022-12-15T00:27:04.770Z,93.30
2022-12-15T00:28:05.931Z,93.20
2022-12-15T00:29:04.801Z,92.98
2022-12-15T00:30:05.359Z,92.88
2022-12-15T00:31:04.900Z,92.70
2022-12-15T00:32:04.768Z,92.59
2022-12-15T00:33:04.707Z,92.49
2022-12-15T00:34:04.792Z,92.38
2022-12-15T00:35:04.772Z,92.38
2022-12-15T00:36:04.699Z,92.38
2022-12-15T00:37:04.716Z,92.38
2022-12-15T00:38:05.551Z,92.38
2022-12-15T00:39:04.652Z,92.38
2022-12-15T00:40:04.807Z,92.27
2022-12-15T00:41:04.629Z,92.21
2022-12-15T00:42:05.349Z,92.10
2022-12-15T00:43:05.580Z,91.88
2022-12-15T00:44:04.614Z,91.77
2022-12-15T00:45:04.659Z,91.66
2022-12-15T00:46:04.634Z,91.71
2022-12-15T00:47:04.679Z,91.71
2022-12-15T00:48:05.364Z,91.60
2022-12-15T00:49:04.611Z,91.49
2022-12-15T00:50:05.419Z,91.38
2022-12-15T00:51:04.549Z,91.27
2022-12-15T00:52:04.546Z,91.42
2022-12-15T00:53:04.580Z,91.53
2022-12-15T00:54:05.190Z,91.64
2022-12-15T00:55:04.506Z,91.75
2022-12-15T00:56:04.522Z,92.07
2022-12-15T00:57:04.458Z,92.29
2022-12-15T00:58:04.423Z,92.46
2022-12-15T00:59:04.446Z,92.57
2022-12-15T01:00:04.430Z,92.57
2022-12-15T01:01:05.388Z,92.57
2022-12-15T01:02:05.404Z,92.46
2022-12-15T01:03:04.739Z,92.46
2022-12-15T01:04:04.445Z,92.57
2022-12-15T01:05:05.518Z,92.57
2022-12-15T01:06:04.399Z,92.57
2022-12-15T01:07:05.321Z,92.57
2022-12-15T01:08:04.605Z,92.68
2022-12-15T01:09:04.329Z,92.79
2022-12-15T01:10:05.550Z,92.89
2022-12-15T01:11:04.297Z,92.79
2022-12-15T01:12:04.618Z,92.57
2022-12-15T01:13:04.348Z,92.35
2022-12-15T01:14:04.300Z,92.24
2022-12-15T01:15:04.391Z,92.35
2022-12-15T01:16:04.327Z,92.35
2022-12-15T01:17:05.200Z,92.57
2022-12-15T01:18:05.280Z,92.79
2022-12-15T01:19:04.198Z,93.11
2022-12-15T01:20:04.200Z,93.54
2022-12-15T01:21:04.726Z,93.60
2022-12-15T01:22:04.720Z,93.60
2022-12-15T01:23:05.328Z,93.71
2022-12-15T01:24:04.256Z,94.04
2022-12-15T01:25:05.138Z,94.53
2022-12-15T01:26:04.114Z,94.74
2022-12-15T01:27:04.118Z,94.64
2022-12-15T01:28:05.359Z,94.70
2022-12-15T01:29:04.090Z,94.70
2022-12-15T01:30:04.099Z,94.60
2022-12-15T01:31:04.105Z,94.27
2022-12-15T01:32:04.116Z,94.38
2022-12-15T01:33:04.669Z,94.38
2022-12-15T01:34:04.406Z,94.17
2022-12-15T01:35:04.304Z,93.95
2022-12-15T01:36:03.995Z,93.84
2022-12-15T01:37:03.990Z,93.67
2022-12-15T01:38:04.011Z,93.74
2022-12-15T01:39:04.001Z,94.27
2022-12-15T01:40:04.042Z,94.92
2022-12-15T01:41:04.100Z,95.03
2022-12-15T01:42:04.005Z,95.31
2022-12-15T01:43:04.014Z,95.53
2022-12-15T01:44:03.965Z,95.53
2022-12-15T01:45:03.990Z,95.31
2022-12-15T01:46:05.168Z,95.09
2022-12-15T01:47:04.998Z,94.77
2022-12-15T01:48:03.927Z,94.49
2022-12-15T01:49:03.953Z,94.17
2022-12-15T01:50:03.834Z,93.84
2022-12-15T01:51:03.850Z,93.52
2022-12-15T01:52:03.882Z,93.24
2022-12-15T01:53:03.888Z,93.02
2022-12-15T01:54:03.887Z,92.70
2022-12-15T01:55:04.026Z,92.59
2022-12-15T01:56:03.773Z,92.42
2022-12-15T01:57:03.809Z,92.31
2022-12-15T01:58:03.818Z,92.21
2022-12-15T01:59:04.943Z,92.10
2022-12-15T02:00:04.847Z,91.88
2022-12-15T02:01:04.220Z,91.82
2022-12-15T02:02:03.960Z,91.82
2022-12-15T02:03:03.942Z,91.82
2022-12-15T02:04:03.931Z,91.71
2022-12-15T02:05:03.684Z,91.53
2022-12-15T02:06:03.868Z,91.42
2022-12-15T02:07:03.679Z,91.42
2022-12-15T02:08:03.690Z,91.42
2022-12-15T02:09:03.716Z,91.85
2022-12-15T02:10:03.637Z,92.68
2022-12-15T02:11:03.652Z,93.54
2022-12-15T02:12:04.595Z,93.86
2022-12-15T02:13:03.602Z,93.82
2022-12-15T02:14:03.600Z,93.82
2022-12-15T02:15:03.683Z,93.71
2022-12-15T02:16:03.703Z,93.60
2022-12-15T02:17:04.745Z,93.49
2022-12-15T02:18:03.667Z,93.60
2022-12-15T02:19:03.761Z,93.71
2022-12-15T02:20:03.551Z,93.71
2022-12-15T02:21:03.515Z,93.60
2022-12-15T02:22:03.505Z,93.82
2022-12-15T02:23:03.504Z,94.21
2022-12-15T02:24:03.467Z,94.21
2022-12-15T02:25:03.679Z,94.10
2022-12-15T02:26:03.485Z,93.99
2022-12-15T02:27:03.493Z,93.88
2022-12-15T02:28:03.816Z,93.67
2022-12-15T02:29:03.458Z,93.56
2022-12-15T02:30:03.935Z,93.46
2022-12-15T02:31:03.414Z,93.77
2022-12-15T02:32:04.465Z,94.10
2022-12-15T02:33:03.409Z,94.21
2022-12-15T02:34:03.342Z,94.21
2022-12-15T02:35:04.376Z,94.21
2022-12-15T02:36:03.408Z,94.38
2022-12-15T02:37:03.404Z,94.38
2022-12-15T02:38:03.335Z,94.49
2022-12-15T02:39:03.288Z,94.38
2022-12-15T02:40:03.325Z,94.49
2022-12-15T02:41:03.296Z,94.49
2022-12-15T02:42:03.273Z,94.60
2022-12-15T02:43:03.265Z,94.49
2022-12-15T02:44:04.205Z,94.38
2022-12-15T02:45:03.245Z,94.17
2022-12-15T02:46:03.310Z,94.06
2022-12-15T02:47:03.282Z,93.95
2022-12-15T02:48:03.213Z,93.95
2022-12-15T02:49:03.218Z,93.95
2022-12-15T02:50:03.238Z,94.23
2022-12-15T02:51:03.185Z,94.45
2022-12-15T02:52:03.166Z,94.45
2022-12-15T02:53:03.182Z,94.45
2022-12-15T02:54:04.139Z,94.45
2022-12-15T02:55:04.174Z,94.77
2022-12-15T02:56:04.081Z,95.09
2022-12-15T02:57:03.117Z,94.88
2022-12-15T02:58:03.168Z,94.84
2022-12-15T02:59:03.085Z,94.94
2022-12-15T03:00:03.115Z,95.05
2022-12-15T03:01:03.145Z,95.26
2022-12-15T03:02:03.319Z,95.37
2022-12-15T03:03:04.022Z,95.33
2022-12-15T03:04:03.028Z,95.22
2022-12-15T03:05:03.011Z,95.05
2022-12-15T03:06:03.317Z,94.84
2022-12-15T03:07:03.085Z,94.62
2022-12-15T03:08:04.015Z,94.51
2022-12-15T03:09:03.852Z,94.51
2022-12-15T03:10:03.141Z,94.51
2022-12-15T03:11:02.985Z,94.51
2022-12-15T03:12:02.958Z,94.37
2022-12-15T03:13:02.982Z,94.47
2022-12-15T03:14:02.929Z,94.47
2022-12-15T03:15:03.814Z,94.58
2022-12-15T03:16:02.987Z,94.68
2022-12-15T03:17:02.859Z,94.68
2022-12-15T03:18:02.927Z,95.07
2022-12-15T03:19:02.971Z,95.18
2022-12-15T03:20:02.876Z,95.29
2022-12-15T03:21:04.274Z,95.40
2022-12-15T03:22:02.832Z,95.29
2022-12-15T03:23:02.873Z,95.36
2022-12-15T03:24:02.823Z,95.36
2022-12-15T03:25:02.822Z,95.25
2022-12-15T03:26:02.821Z,95.25
2022-12-15T03:27:02.827Z,95.25
2022-12-15T03:28:02.789Z,95.36
2022-12-15T03:29:02.744Z,95.25
2022-12-15T03:30:02.797Z,95.03
2022-12-15T03:31:02.710Z,94.92
2022-12-15T03:32:02.786Z,94.92
2022-12-15T03:33:02.713Z,95.25
2022-12-15T03:34:02.865Z,95.57
2022-12-15T03:35:03.914Z,95.68
2022-12-15T03:36:02.814Z,95.78
2022-12-15T03:37:02.677Z,95.68
2022-12-15T03:38:02.662Z,95.57
2022-12-15T03:39:02.638Z,95.36
2022-12-15T03:40:02.708Z,95.14
2022-12-15T03:41:03.148Z,95.03
2022-12-15T03:42:02.617Z,94.96
2022-12-15T03:43:02.728Z,94.86
2022-12-15T03:44:02.606Z,94.64
2022-12-15T03:45:02.652Z,94.54
2022-12-15T03:46:03.453Z,94.43
2022-12-15T03:47:03.800Z,94.43
2022-12-15T03:48:02.518Z,94.43
2022-12-15T03:49:02.512Z,94.43
2022-12-15T03:50:02.489Z,94.92
2022-12-15T03:51:02.531Z,95.03
2022-12-15T03:52:02.517Z,95.03
2022-12-15T03:53:02.477Z,95.03
2022-12-15T03:54:02.464Z,94.88
2022-12-15T03:55:03.182Z,94.99
2022-12-15T03:56:02.476Z,94.99
2022-12-15T03:57:02.453Z,94.88
2022-12-15T03:58:02.422Z,94.78
2022-12-15T03:59:03.671Z,94.67
2022-12-15T04:00:02.421Z,94.49
2022-12-15T04:01:02.778Z,94.35
2022-12-15T04:02:02.637Z,94.38
2022-12-15T04:03:02.511Z,94.88
2022-12-15T04:04:02.570Z,95.64
2022-12-15T04:05:02.845Z,95.81
2022-12-15T04:06:02.364Z,95.70
2022-12-15T04:07:02.423Z,95.48
2022-12-15T04:08:02.327Z,95.27
2022-12-15T04:09:02.297Z,95.16
2022-12-15T04:10:02.281Z,95.48
2022-12-15T04:11:02.263Z,95.59
2022-12-15T04:12:03.448Z,95.55
2022-12-15T04:13:02.252Z,95.44
2022-12-15T04:14:02.236Z,95.34
2022-12-15T04:15:03.232Z,95.23
2022-12-15T04:16:02.204Z,95.12
2022-12-15T04:17:02.298Z,95.01
2022-12-15T04:18:02.202Z,94.95
2022-12-15T04:19:02.193Z,94.84
2022-12-15T04:20:02.198Z,94.62
2022-12-15T04:21:02.171Z,94.52
2022-12-15T04:22:02.142Z,94.62
2022-12-15T04:23:02.190Z,94.95
2022-12-15T04:24:02.147Z,94.95
2022-12-15T04:25:02.108Z,94.84
2022-12-15T04:26:02.232Z,94.84
2022-12-15T04:27:02.808Z,94.95
2022-12-15T04:28:02.115Z,95.01
2022-12-15T04:29:02.110Z,95.12
2022-12-15T04:30:02.155Z,95.12
2022-12-15T04:31:02.129Z,95.23
2022-12-15T04:32:02.064Z,95.34
2022-12-15T04:33:02.033Z,95.23
2022-12-15T04:34:01.993Z,95.12
2022-12-15T04:35:02.299Z,95.12
2022-12-15T04:36:01.997Z,95.01
2022-12-15T04:37:02.024Z,95.01
2022-12-15T04:38:02.094Z,95.01
2022-12-15T04:39:01.969Z,94.90
2022-12-15T04:40:01.934Z,94.80
2022-12-15T04:41:01.949Z,94.69
2022-12-15T04:42:01.906Z,94.48
2022-12-15T04:43:01.884Z,94.90
2022-12-15T04:44:01.922Z,95.12
2022-12-15T04:45:03.343Z,95.23
2022-12-15T04:46:01.968Z,95.12
2022-12-15T04:47:01.832Z,95.12
2022-12-15T04:48:01.889Z,95.23
2022-12-15T04:49:01.926Z,95.23
2022-12-15T04:50:02.102Z,95.23
2022-12-15T04:51:01.804Z,95.23
2022-12-15T04:52:01.806Z,95.44
2022-12-15T04:53:01.821Z,95.51
2022-12-15T04:54:01.802Z,95.72
2022-12-15T04:55:01.781Z,95.83
2022-12-15T04:56:01.756Z,96.04
2022-12-15T04:57:01.761Z,96.04
2022-12-15T04:58:01.741Z,95.94
2022-12-15T04:59:01.730Z,95.83
2022-12-15T05:00:01.693Z,95.94
2022-12-15T05:01:01.798Z,96.11
2022-12-15T05:02:03.293Z,96.32
2022-12-15T05:03:02.643Z,96.32
2022-12-15T05:04:01.794Z,96.43
2022-12-15T05:05:02.452Z,96.43
2022-12-15T05:06:01.630Z,96.49
2022-12-15T05:07:01.613Z,96.60
2022-12-15T05:08:01.641Z,96.60
2022-12-15T05:09:01.597Z,96.60
2022-12-15T05:10:03.392Z,96.60
2022-12-15T05:11:01.593Z,96.70
2022-12-15T05:12:01.543Z,96.81
2022-12-15T05:13:01.609Z,96.98
2022-12-15T05:14:01.545Z,97.20
2022-12-15T05:15:02.502Z,97.09
2022-12-15T05:16:01.626Z,96.98
2022-12-15T05:17:01.555Z,97.09
2022-12-15T05:18:01.512Z,97.20
2022-12-15T05:19:01.520Z,97.20
2022-12-15T05:20:01.523Z,97.31
2022-12-15T05:21:01.492Z,97.09
2022-12-15T05:22:01.460Z,96.98
2022-12-15T05:23:01.457Z,96.77
2022-12-15T05:24:01.468Z,96.66
2022-12-15T05:25:01.440Z,96.66
2022-12-15T05:26:01.620Z,96.66
2022-12-15T05:27:01.387Z,96.77
2022-12-15T05:28:01.401Z,96.77
2022-12-15T05:29:02.221Z,96.77
2022-12-15T05:30:01.399Z,96.77
2022-12-15T05:31:01.447Z,96.77
2022-12-15T05:32:02.000Z,96.77
2022-12-15T05:33:01.297Z,96.77
2022-12-15T05:34:05.478Z,96.45
2022-12-15T05:35:02.131Z,96.23
2022-12-15T05:36:02.540Z,96.13
2022-12-15T05:37:01.328Z,96.02
2022-12-15T05:38:01.291Z,96.13
2022-12-15T05:39:01.301Z,96.13
2022-12-15T05:40:01.395Z,96.23
2022-12-15T05:41:01.462Z,96.45
2022-12-15T05:42:01.327Z,96.56
2022-12-15T05:43:01.270Z,96.66
2022-12-15T05:44:01.402Z,96.77
2022-12-15T05:45:01.783Z,96.66
2022-12-15T05:46:01.316Z,96.77
2022-12-15T05:47:02.401Z,96.83
2022-12-15T05:48:01.272Z,96.94
2022-12-15T05:49:01.161Z,97.54
2022-12-15T05:50:01.120Z,98.14
2022-12-15T05:51:01.120Z,98.14
2022-12-15T05:52:01.099Z,98.03
2022-12-15T05:53:01.087Z,97.81
2022-12-15T05:54:01.101Z,97.60
2022-12-15T05:55:02.043Z,97.43
2022-12-15T05:56:01.110Z,97.11
2022-12-15T05:57:01.084Z,96.90
2022-12-15T05:58:01.097Z,96.79
2022-12-15T05:59:01.022Z,96.79
2022-12-15T06:00:02.287Z,96.69
2022-12-15T06:01:02.192Z,96.90
2022-12-15T06:02:01.205Z,96.79
2022-12-15T06:03:01.037Z,96.69
2022-12-15T06:04:01.035Z,96.79
2022-12-15T06:05:01.122Z,96.69
2022-12-15T06:06:01.190Z,96.62
2022-12-15T06:07:00.992Z,96.41
2022-12-15T06:08:01.009Z,96.30
2022-12-15T06:09:00.914Z,95.98
2022-12-15T06:10:01.835Z,95.81
2022-12-15T06:11:00.998Z,95.59
2022-12-15T06:12:00.865Z,95.70
2022-12-15T06:13:01.349Z,96.02
2022-12-15T06:14:00.868Z,96.30
2022-12-15T06:15:00.841Z,96.62
2022-12-15T06:16:00.884Z,96.73
2022-12-15T06:17:00.879Z,96.83
2022-12-15T06:18:00.887Z,96.83
2022-12-15T06:19:02.275Z,96.90
2022-12-15T06:20:00.867Z,96.73
2022-12-15T06:21:00.790Z,96.51
2022-12-15T06:22:00.787Z,96.30
2022-12-15T06:23:00.770Z,96.09
2022-12-15T06:24:00.808Z,95.92
2022-12-15T06:25:00.721Z,95.59
2022-12-15T06:26:00.706Z,95.38
2022-12-15T06:27:00.745Z,95.21
2022-12-15T06:28:02.003Z,95.10
2022-12-15T06:29:00.758Z,94.89
2022-12-15T06:30:00.747Z,94.82
2022-12-15T06:31:00.754Z,94.71
2022-12-15T06:32:00.869Z,94.71
2022-12-15T06:33:00.910Z,94.82
2022-12-15T06:34:02.398Z,95.04
2022-12-15T06:35:01.648Z,95.14
2022-12-15T06:36:00.592Z,95.47
2022-12-15T06:37:00.607Z,95.57
2022-12-15T06:38:00.588Z,96.00
2022-12-15T06:39:01.622Z,96.32
2022-12-15T06:40:01.546Z,96.43
2022-12-15T06:41:00.564Z,96.43
2022-12-15T06:42:00.596Z,96.32
2022-12-15T06:43:00.509Z,96.22
2022-12-15T06:44:01.337Z,96.11
2022-12-15T06:45:00.570Z,95.89
2022-12-15T06:46:00.646Z,95.78
2022-12-15T06:47:00.643Z,95.68
2022-12-15T06:48:01.618Z,95.68
2022-12-15T06:49:00.430Z,95.61
2022-12-15T06:50:00.476Z,95.51
2022-12-15T06:51:00.428Z,95.51
2022-12-15T06:52:00.398Z,95.61
2022-12-15T06:53:00.441Z,95.51
2022-12-15T06:54:00.480Z,95.40
2022-12-15T06:55:00.618Z,95.40
2022-12-15T06:56:01.005Z,95.29
2022-12-15T06:57:01.425Z,95.07
2022-12-15T06:58:00.328Z,95.07
2022-12-15T06:59:00.368Z,95.23
2022-12-15T07:00:00.299Z,95.40
2022-12-15T07:01:00.323Z,95.44
2022-12-15T07:02:00.505Z,95.34
2022-12-15T07:03:00.419Z,95.34
2022-12-15T07:04:00.698Z,95.12
2022-12-15T07:05:00.313Z,95.01
2022-12-15T07:06:00.265Z,94.90
2022-12-15T07:07:00.240Z,94.80
2022-12-15T07:08:00.228Z,94.69
2022-12-15T07:09:00.227Z,94.69
2022-12-15T07:10:01.199Z,94.90
2022-12-15T07:11:01.001Z,95.23
2022-12-15T07:12:00.226Z,95.34
2022-12-15T07:13:00.201Z,95.44
2022-12-15T07:14:00.134Z,95.65
2022-12-15T07:15:00.627Z,95.98
2022-12-15T07:16:00.166Z,96.15
2022-12-15T07:17:00.112Z,96.15
2022-12-15T07:18:00.947Z,96.15
2022-12-15T07:19:00.143Z,95.98
2022-12-15T07:20:00.158Z,95.72
2022-12-15T07:21:00.078Z,95.61
2022-12-15T07:22:00.086Z,95.40
2022-12-15T07:23:00.218Z,95.29
2022-12-15T07:24:01.188Z,95.29
2022-12-15T07:25:00.083Z,95.29
2022-12-15T07:26:04.205Z,95.40
2022-12-15T07:27:01.131Z,95.40
2022-12-15T07:28:00.020Z,95.40
2022-12-15T07:29:00.020Z,95.40
2022-12-15T07:30:00.849Z,95.51
2022-12-15T07:31:00.243Z,95.61
2022-12-15T07:32:01.118Z,95.78
2022-12-15T07:32:59.940Z,95.89
2022-12-15T07:34:00.022Z,95.78
2022-12-15T07:34:59.968Z,95.68
2022-12-15T07:36:00.282Z,95.57
2022-12-15T07:36:59.996Z,95.47
2022-12-15T07:37:59.977Z,95.57
2022-12-15T07:38:59.979Z,95.47
2022-12-15T07:39:59.844Z,95.36
2022-12-15T07:40:59.866Z,95.25
2022-12-15T07:41:59.864Z,95.36
2022-12-15T07:43:00.600Z,95.47
2022-12-15T07:43:59.842Z,95.57
2022-12-15T07:44:59.816Z,95.57
2022-12-15T07:46:00.105Z,95.53
2022-12-15T07:46:59.816Z,95.53
2022-12-15T07:48:00.011Z,95.53
2022-12-15T07:49:00.036Z,95.42
2022-12-15T07:49:59.800Z,95.53
2022-12-15T07:51:08.481Z,95.31
2022-12-15T07:52:00.711Z,95.31
2022-12-15T07:52:59.717Z,95.31
2022-12-15T07:54:00.181Z,95.31
2022-12-15T07:55:00.667Z,95.31
2022-12-15T07:56:07.357Z,95.42
2022-12-15T07:57:00.654Z,95.74
2022-12-15T07:57:59.696Z,95.92
2022-12-15T07:58:59.716Z,96.02
2022-12-15T07:59:59.640Z,96.13
2022-12-15T08:00:59.709Z,96.13
2022-12-15T08:01:59.856Z,95.92
2022-12-15T08:02:59.702Z,96.09
2022-12-15T08:03:59.625Z,96.51
2022-12-15T08:04:59.590Z,96.51
2022-12-15T08:06:03.972Z,96.58
2022-12-15T08:06:59.597Z,96.36
2022-12-15T08:07:59.583Z,96.15
2022-12-15T08:08:59.556Z,95.94
2022-12-15T08:09:59.516Z,95.72
2022-12-15T08:10:59.628Z,95.61
2022-12-15T08:11:59.495Z,95.61
2022-12-15T08:12:59.514Z,95.61
2022-12-15T08:14:03.060Z,96.04
2022-12-15T08:15:00.478Z,96.11
2022-12-15T08:15:59.646Z,96.22
2022-12-15T08:16:59.462Z,96.32
2022-12-15T08:17:59.410Z,96.32
2022-12-15T08:18:59.419Z,96.43
2022-12-15T08:20:01.419Z,96.39
2022-12-15T08:21:00.532Z,96.39
2022-12-15T08:21:59.407Z,96.28
2022-12-15T08:22:59.405Z,96.17
2022-12-15T08:23:59.401Z,96.17
2022-12-15T08:24:59.387Z,96.06
2022-12-15T08:25:59.347Z,95.96
2022-12-15T08:27:00.325Z,95.75
2022-12-15T08:27:59.328Z,95.75
2022-12-15T08:29:17.479Z,95.70
2022-12-15T08:30:00.361Z,96.02
2022-12-15T08:30:59.298Z,96.23
2022-12-15T08:31:59.375Z,96.19
2022-12-15T08:32:59.277Z,96.30
2022-12-15T08:33:59.982Z,96.41
2022-12-15T08:34:59.348Z,96.62
2022-12-15T08:35:59.228Z,96.79
2022-12-15T08:36:59.207Z,96.79
2022-12-15T08:38:03.817Z,96.89
2022-12-15T08:39:01.360Z,96.79
2022-12-15T08:39:59.236Z,96.85
2022-12-15T08:40:59.195Z,97.17
2022-12-15T08:41:59.138Z,97.17
2022-12-15T08:42:59.136Z,97.13
2022-12-15T08:43:59.126Z,97.24
2022-12-15T08:44:59.257Z,97.51
2022-12-15T08:45:59.268Z,97.62
2022-12-15T08:46:59.138Z,97.41
2022-12-15T08:47:59.131Z,97.51
2022-12-15T08:48:59.056Z,97.41
2022-12-15T08:49:59.066Z,97.36
2022-12-15T08:50:59.024Z,97.15
2022-12-15T08:51:59.097Z,97.15
2022-12-15T08:53:28.932Z,97.15
2022-12-15T08:54:00.009Z,97.15
2022-12-15T08:54:59.401Z,97.04
2022-12-15T08:55:58.993Z,96.94
2022-12-15T08:56:59.041Z,97.04
2022-12-15T08:57:58.988Z,97.00
2022-12-15T08:58:58.948Z,96.89
2022-12-15T08:59:58.925Z,96.68
2022-12-15T09:00:59.427Z,96.57
2022-12-15T09:01:59.038Z,96.68
2022-12-15T09:02:58.907Z,96.78
2022-12-15T09:03:58.921Z,96.85
2022-12-15T09:04:59.638Z,96.74
2022-12-15T09:05:59.367Z,96.85
2022-12-15T09:06:59.096Z,97.06
2022-12-15T09:08:04.621Z,97.17
2022-12-15T09:08:59.835Z,97.13
2022-12-15T09:09:58.830Z,97.13
2022-12-15T09:10:58.848Z,97.23
2022-12-15T09:11:58.910Z,97.50
2022-12-15T09:12:58.827Z,97.50
2022-12-15T09:13:58.780Z,97.67
2022-12-15T09:14:58.803Z,97.67
2022-12-15T09:16:13.988Z,97.89
2022-12-15T09:16:59.778Z,97.95
2022-12-15T09:17:59.668Z,97.85
2022-12-15T09:18:58.763Z,97.85
2022-12-15T09:19:58.706Z,97.80
2022-12-15T09:20:58.718Z,97.69
2022-12-15T09:21:58.680Z,97.69
2022-12-15T09:22:58.778Z,97.59
2022-12-15T09:23:58.643Z,97.38
2022-12-15T09:24:59.509Z,97.33
2022-12-15T09:25:58.650Z,97.54
2022-12-15T09:26:58.630Z,97.65
2022-12-15T09:27:58.650Z,97.54
2022-12-15T09:28:58.598Z,97.39
2022-12-15T09:29:58.667Z,97.39
2022-12-15T09:30:58.696Z,97.61
2022-12-15T09:31:58.558Z,97.61
2022-12-15T09:32:58.525Z,97.56
2022-12-15T09:33:58.616Z,97.45
2022-12-15T09:34:58.515Z,97.35
2022-12-15T09:35:58.649Z,97.14
2022-12-15T09:36:58.517Z,97.35
2022-12-15T09:37:58.528Z,97.24
2022-12-15T09:38:58.490Z,97.35
2022-12-15T09:39:58.464Z,97.45
2022-12-15T09:40:58.474Z,97.52
2022-12-15T09:41:58.575Z,97.63
2022-12-15T09:43:25.643Z,97.63
2022-12-15T09:44:00.930Z,97.63
2022-12-15T09:44:59.628Z,97.63
2022-12-15T09:45:58.582Z,97.79
2022-12-15T09:46:58.419Z,97.90
2022-12-15T09:47:58.444Z,97.79
2022-12-15T09:48:58.421Z,97.90
2022-12-15T09:49:58.525Z,97.96
2022-12-15T09:50:58.327Z,97.96
2022-12-15T09:51:58.329Z,97.85
2022-12-15T09:52:58.337Z,97.75
2022-12-15T09:53:58.943Z,98.34
2022-12-15T09:54:58.973Z,98.61
2022-12-15T09:55:59.234Z,98.50
2022-12-15T09:56:58.423Z,98.30
2022-12-15T09:57:58.252Z,98.14
2022-12-15T09:58:58.259Z,98.04
2022-12-15T09:59:58.296Z,98.14
2022-12-15T10:00:58.244Z,98.04
2022-12-15T10:01:58.402Z,97.83
2022-12-15T10:02:58.338Z,97.83
2022-12-15T10:03:58.274Z,97.72
2022-12-15T10:04:59.249Z,97.67
2022-12-15T10:06:59.131Z,97.95
2022-12-15T10:07:58.440Z,98.06
2022-12-15T10:08:58.293Z,97.85
2022-12-15T10:09:58.180Z,97.63
2022-12-15T10:10:58.297Z,97.53
2022-12-15T10:11:58.107Z,97.53
2022-12-15T10:13:02.320Z,97.74
2022-12-15T10:13:58.087Z,97.74
2022-12-15T10:14:59.307Z,97.53
2022-12-15T10:15:58.109Z,97.31
2022-12-15T10:16:58.097Z,97.31
2022-12-15T10:17:58.012Z,97.11
2022-12-15T10:19:01.360Z,96.89
2022-12-15T10:19:57.989Z,96.62
2022-12-15T10:20:58.735Z,96.73
2022-12-15T10:21:58.008Z,96.73
2022-12-15T10:22:58.703Z,96.73
2022-12-15T10:23:57.957Z,96.83
2022-12-15T10:25:14.238Z,97.31
2022-12-15T10:25:59.051Z,97.63
2022-12-15T10:26:57.904Z,97.91
2022-12-15T10:27:57.898Z,98.01
2022-12-15T10:28:59.011Z,97.69
2022-12-15T10:29:57.938Z,97.75
2022-12-15T10:30:57.960Z,97.65
2022-12-15T10:31:57.869Z,97.65
2022-12-15T10:32:57.816Z,97.55
2022-12-15T10:33:58.561Z,97.71
2022-12-15T10:34:58.017Z,97.61
2022-12-15T10:35:57.882Z,97.71
2022-12-15T10:36:57.798Z,97.77
2022-12-15T10:37:57.800Z,97.88
2022-12-15T10:38:57.774Z,97.73
2022-12-15T10:39:57.738Z,97.73
2022-12-15T10:40:57.735Z,97.79
2022-12-15T10:41:57.807Z,97.69
2022-12-15T10:42:58.255Z,97.47
2022-12-15T10:43:57.697Z,97.37
2022-12-15T10:44:58.097Z,97.16
2022-12-15T10:45:57.780Z,97.11
2022-12-15T10:46:57.724Z,96.80
2022-12-15T10:47:57.689Z,96.48
2022-12-15T10:48:57.659Z,95.95
2022-12-15T10:49:57.647Z,95.79
2022-12-15T10:50:57.652Z,95.89
2022-12-15T10:51:57.633Z,96.31
2022-12-15T10:52:57.660Z,96.59
2022-12-15T10:53:57.609Z,96.59
2022-12-15T10:54:57.667Z,96.48
2022-12-15T10:55:57.626Z,96.53
2022-12-15T10:56:57.969Z,96.73
2022-12-15T10:57:57.540Z,96.80
2022-12-15T10:58:57.927Z,97.01
2022-12-15T10:59:57.659Z,97.11
2022-12-15T11:00:57.514Z,96.69
2022-12-15T11:01:57.647Z,96.37
2022-12-15T11:02:57.933Z,96.27
2022-12-15T11:03:57.697Z,96.27
2022-12-15T11:04:57.479Z,96.37
2022-12-15T11:05:57.427Z,96.55
2022-12-15T11:06:57.589Z,96.55
2022-12-15T11:07:57.472Z,96.65
2022-12-15T11:08:57.401Z,96.55
2022-12-15T11:09:57.443Z,96.44
2022-12-15T11:10:57.402Z,96.33
2022-12-15T11:11:57.400Z,96.44
2022-12-15T11:12:58.737Z,96.29
2022-12-15T11:13:57.406Z,96.19
2022-12-15T11:14:57.339Z,95.97
2022-12-15T11:15:57.301Z,96.08
2022-12-15T11:16:57.343Z,96.29
2022-12-15T11:17:57.391Z,96.50
2022-12-15T11:18:57.298Z,96.56
2022-12-15T11:20:02.363Z,96.56
2022-12-15T11:20:58.269Z,96.35
2022-12-15T11:21:57.238Z,96.25
2022-12-15T11:22:57.249Z,96.25
2022-12-15T11:23:57.229Z,96.10
2022-12-15T11:24:57.947Z,96.20
2022-12-15T11:25:58.171Z,95.99
2022-12-15T11:26:57.194Z,95.78
2022-12-15T11:27:57.184Z,95.78
2022-12-15T11:28:57.278Z,95.89
2022-12-15T11:29:57.155Z,95.99
2022-12-15T11:30:57.146Z,95.57
2022-12-15T11:32:00.078Z,95.68
2022-12-15T11:32:58.121Z,95.78
2022-12-15T11:33:57.181Z,95.89
2022-12-15T11:34:57.135Z,95.99
2022-12-15T11:35:57.103Z,95.99
2022-12-15T11:36:57.048Z,96.10
2022-12-15T11:37:57.047Z,95.84
2022-12-15T11:38:57.099Z,95.84
2022-12-15T11:39:57.158Z,95.53
2022-12-15T11:40:57.013Z,95.32
2022-12-15T11:41:57.066Z,95.21
2022-12-15T11:42:57.049Z,95.10
2022-12-15T11:43:59.779Z,95.42
2022-12-15T11:44:57.310Z,95.21
2022-12-15T11:45:56.942Z,95.32
2022-12-15T11:46:56.958Z,95.42
2022-12-15T11:47:56.910Z,95.64
2022-12-15T11:48:56.930Z,95.64
2022-12-15T11:49:56.981Z,95.42
2022-12-15T11:50:56.937Z,95.32
2022-12-15T11:51:56.901Z,95.48
2022-12-15T11:52:56.883Z,95.48
2022-12-15T11:53:56.860Z,95.28
2022-12-15T11:54:56.824Z,95.17
2022-12-15T11:55:56.859Z,94.96
2022-12-15T11:56:56.817Z,94.85
2022-12-15T11:57:56.984Z,94.85
2022-12-15T11:58:56.831Z,94.65
2022-12-15T11:59:56.792Z,94.54
2022-12-15T12:00:56.790Z,94.75
2022-12-15T12:02:02.786Z,95.17
2022-12-15T12:02:57.839Z,95.17
2022-12-15T12:03:57.549Z,95.06
2022-12-15T12:04:56.749Z,95.02
2022-12-15T12:05:56.709Z,94.71
2022-12-15T12:06:56.723Z,94.29
2022-12-15T12:07:56.678Z,94.45
2022-12-15T12:08:56.650Z,94.49
2022-12-15T12:09:56.674Z,94.49
2022-12-15T12:10:56.708Z,94.60
2022-12-15T12:11:56.695Z,94.71
2022-12-15T12:12:56.662Z,94.49
2022-12-15T12:13:56.623Z,94.60
2022-12-15T12:14:56.576Z,94.49
2022-12-15T12:15:57.420Z,94.18
2022-12-15T12:16:56.566Z,94.39
2022-12-15T12:17:56.590Z,94.60
2022-12-15T12:18:56.601Z,94.81
2022-12-15T12:19:56.572Z,95.23
2022-12-15T12:20:56.523Z,94.92
2022-12-15T12:21:56.575Z,95.02
2022-12-15T12:22:56.552Z,94.92
2022-12-15T12:23:56.498Z,95.23
2022-12-15T12:24:57.577Z,95.13
2022-12-15T12:26:02.610Z,94.81
2022-12-15T12:26:57.450Z,95.02
2022-12-15T12:27:56.671Z,95.02
2022-12-15T12:28:57.202Z,95.13
2022-12-15T12:29:56.471Z,94.92
2022-12-15T12:30:56.410Z,94.49
2022-12-15T12:32:02.007Z,94.49
2022-12-15T12:32:57.412Z,94.60
2022-12-15T12:33:56.351Z,94.60
2022-12-15T12:35:30.691Z,94.60
2022-12-15T12:35:58.804Z,94.60
2022-12-15T12:36:56.320Z,94.60
2022-12-15T12:38:01.152Z,94.56
2022-12-15T12:38:57.365Z,94.24
2022-12-15T12:39:56.281Z,94.04
2022-12-15T12:40:56.791Z,94.18
2022-12-15T12:41:56.343Z,94.14
2022-12-15T12:42:56.246Z,94.24
2022-12-15T12:43:56.343Z,94.18
2022-12-15T12:44:56.252Z,94.18
2022-12-15T12:45:56.233Z,94.49
2022-12-15T12:46:56.214Z,94.45
2022-12-15T12:47:56.199Z,94.35
2022-12-15T12:48:56.176Z,94.45
2022-12-15T12:49:56.234Z,94.35
2022-12-15T12:50:56.171Z,94.04
2022-12-15T12:51:56.122Z,93.72
2022-12-15T12:52:56.118Z,93.82